createdAt,value
2023-02-01T00:00:34.277Z,20.92
2023-02-01T00:03:02.367Z,23.70
2023-02-01T00:05:29.328Z,23.83
2023-02-01T00:07:56.347Z,29.23
2023-02-01T00:10:23.661Z,25.75
2023-02-01T00:12:50.789Z,27.15
2023-02-01T00:15:17.815Z,30.33
2023-02-01T00:17:44.746Z,24.88
2023-02-01T00:20:12.211Z,29.02
2023-02-01T00:22:39.202Z,25.20
2023-02-01T00:25:06.855Z,28.70
2023-02-01T00:27:33.796Z,22.55
2023-02-01T00:30:00.849Z,21.13
2023-02-01T00:32:27.780Z,19.73
2023-02-01T00:34:54.799Z,28.98
2023-02-01T00:37:22.635Z,25.83
2023-02-01T00:39:50.698Z,20.70
2023-02-01T00:42:17.669Z,21.42
2023-02-01T00:44:44.682Z,22.65
2023-02-01T00:47:11.836Z,20.67
2023-02-01T00:49:38.808Z,25.80
2023-02-01T00:52:05.951Z,21.98
2023-02-01T00:54:33.910Z,19.67
2023-02-01T00:57:00.839Z,26.73
2023-02-01T00:59:27.839Z,21.05
2023-02-01T01:01:55.886Z,20.65
2023-02-01T01:04:23.275Z,25.70
2023-02-01T01:06:50.280Z,22.92
2023-02-01T01:09:17.208Z,20.50
2023-02-01T01:11:44.324Z,27.05
2023-02-01T01:14:11.901Z,26.02
2023-02-01T01:16:39.031Z,25.77
2023-02-01T01:19:06.581Z,27.27
2023-02-01T01:21:34.730Z,25.35
2023-02-01T01:24:01.934Z,20.95
2023-02-01T01:26:30.508Z,27.13
2023-02-01T01:28:59.306Z,30.42
2023-02-01T01:31:27.452Z,22.83
2023-02-01T01:33:56.714Z,26.30
2023-02-01T01:36:24.365Z,21.80
2023-02-01T01:38:51.684Z,24.52
2023-02-01T01:41:22.723Z,23.02
2023-02-01T01:43:53.546Z,17.48
2023-02-01T01:46:33.955Z,24.75
2023-02-01T01:49:13.020Z,19.08
2023-02-01T01:51:49.950Z,24.02
2023-02-01T01:54:26.561Z,24.23
2023-02-01T01:57:00.122Z,32.20
2023-02-01T01:59:27.997Z,27.98
2023-02-01T02:01:56.920Z,22.08
2023-02-01T02:04:24.758Z,24.52
2023-02-01T02:07:00.717Z,17.92
2023-02-01T02:09:27.768Z,17.65
2023-02-01T02:11:54.766Z,26.27
2023-02-01T02:14:24.440Z,25.13
2023-02-01T02:17:09.274Z,26.73
2023-02-01T02:19:57.739Z,26.08
2023-02-01T02:22:48.837Z,20.75
2023-02-01T02:25:27.909Z,24.70
2023-02-01T02:28:22.332Z,23.38
2023-02-01T02:31:20.634Z,25.60
2023-02-01T02:34:02.277Z,33.08
2023-02-01T02:36:34.493Z,27.17
2023-02-01T02:39:28.094Z,26.77
2023-02-01T02:42:36.226Z,22.85
2023-02-01T02:45:28.970Z,31.13
2023-02-01T02:47:57.880Z,31.25
2023-02-01T02:50:53.805Z,25.35
2023-02-01T02:54:12.448Z,27.73
2023-02-01T02:56:59.273Z,30.00
2023-02-01T02:59:47.688Z,22.65
2023-02-01T03:02:34.694Z,22.48
2023-02-01T03:05:01.821Z,25.85
2023-02-01T03:07:50.431Z,29.10
2023-02-01T03:10:52.628Z,29.15
2023-02-01T03:13:25.107Z,28.00
2023-02-01T03:16:11.105Z,35.25
2023-02-01T03:18:53.608Z,31.95
2023-02-01T03:21:32.394Z,32.33
2023-02-01T03:24:05.867Z,32.25
2023-02-01T03:29:10.134Z,34.13
2023-02-01T03:31:37.704Z,33.13
2023-02-01T03:34:05.348Z,34.47
2023-02-01T03:36:40.128Z,41.75
2023-02-01T03:39:20.107Z,46.13
2023-02-01T03:41:56.674Z,37.00
2023-02-01T03:44:25.559Z,38.70
2023-02-01T03:46:55.244Z,38.47
2023-02-01T03:49:30.631Z,39.03
2023-02-01T03:52:00.821Z,41.63
2023-02-01T03:54:29.631Z,39.05
2023-02-01T03:57:00.771Z,41.35
2023-02-01T03:59:27.747Z,43.92
2023-02-01T04:01:54.734Z,36.88
2023-02-01T04:04:21.866Z,40.63
2023-02-01T04:06:53.204Z,40.25
2023-02-01T04:09:21.091Z,41.17
2023-02-01T04:11:48.028Z,34.88
2023-02-01T04:14:14.988Z,38.53
2023-02-01T04:16:41.904Z,42.35
2023-02-01T04:19:09.067Z,45.97
2023-02-01T04:21:36.019Z,51.85
2023-02-01T04:24:02.994Z,44.05
2023-02-01T04:26:30.029Z,41.95
2023-02-01T04:28:57.058Z,47.17
2023-02-01T04:31:26.703Z,49.13
2023-02-01T04:33:55.190Z,51.67
2023-02-01T04:36:23.274Z,49.45
2023-02-01T04:38:51.398Z,61.00
2023-02-01T04:41:23.798Z,63.75
2023-02-01T04:43:53.064Z,48.97
2023-02-01T04:46:20.091Z,51.65
2023-02-01T04:48:47.094Z,54.67
2023-02-01T04:51:14.254Z,46.92
2023-02-01T04:53:41.221Z,44.80
2023-02-01T04:56:08.987Z,38.03
2023-02-01T04:58:35.912Z,47.80
2023-02-01T05:01:07.628Z,43.55
2023-02-01T05:03:35.003Z,41.92
2023-02-01T05:06:02.047Z,44.80
2023-02-01T05:08:29.827Z,42.20
2023-02-01T05:10:56.857Z,41.58
2023-02-01T05:13:42.228Z,45.75
2023-02-01T05:16:09.329Z,45.47
2023-02-01T05:18:36.329Z,47.90
2023-02-01T05:21:03.551Z,54.50
2023-02-01T05:23:30.706Z,49.38
2023-02-01T05:26:01.741Z,54.97
2023-02-01T05:28:29.379Z,48.58
2023-02-01T05:30:56.500Z,54.47
2023-02-01T05:33:23.495Z,52.10
2023-02-01T05:35:51.507Z,48.17
2023-02-01T05:38:18.569Z,49.22
2023-02-01T05:40:50.592Z,54.30
2023-02-01T05:43:17.899Z,47.30
2023-02-01T05:45:44.863Z,55.13
2023-02-01T05:48:11.866Z,52.92
2023-02-01T05:50:38.931Z,46.78
2023-02-01T05:53:09.649Z,48.97
2023-02-01T05:55:37.797Z,47.35
2023-02-01T05:58:05.778Z,51.38
2023-02-01T06:00:33.021Z,45.33
2023-02-01T06:03:00.209Z,59.53
2023-02-01T06:05:27.152Z,59.47
2023-02-01T06:07:54.287Z,53.83
2023-02-01T06:10:21.605Z,66.82
2023-02-01T06:12:48.903Z,66.68
2023-02-01T06:15:19.512Z,64.45
2023-02-01T06:17:47.061Z,61.40
2023-02-01T06:20:15.964Z,60.60
2023-02-01T06:22:43.020Z,63.67
2023-02-01T06:25:11.532Z,63.53
2023-02-01T06:27:38.903Z,60.08
2023-02-01T06:30:07.456Z,65.00
2023-02-01T06:32:35.613Z,66.43
2023-02-01T06:35:02.636Z,70.47
2023-02-01T06:37:30.524Z,64.63
2023-02-01T06:39:57.611Z,62.78
2023-02-01T06:42:24.575Z,62.70
2023-02-01T06:44:52.692Z,66.43
2023-02-01T06:47:19.907Z,64.38
2023-02-01T06:49:46.855Z,72.50
2023-02-01T06:52:13.751Z,71.22
2023-02-01T06:54:40.721Z,63.42
2023-02-01T06:57:07.680Z,65.72
2023-02-01T06:59:34.769Z,68.90
2023-02-01T07:02:01.876Z,69.57
2023-02-01T07:04:28.955Z,79.38
2023-02-01T07:06:55.916Z,71.38
2023-02-01T07:09:22.936Z,82.38
2023-02-01T07:11:49.964Z,78.43
2023-02-01T07:14:17.056Z,87.45
2023-02-01T07:16:43.997Z,80.72
2023-02-01T07:19:11.112Z,87.60
2023-02-01T07:21:38.056Z,86.40
2023-02-01T07:24:05.680Z,75.25
2023-02-01T07:26:33.479Z,78.22
2023-02-01T07:29:00.982Z,73.63
2023-02-01T07:31:30.053Z,75.18
2023-02-01T07:33:58.758Z,78.50
2023-02-01T07:36:26.146Z,77.35
2023-02-01T07:38:56.516Z,67.95
2023-02-01T07:41:24.961Z,70.75
2023-02-01T07:43:54.322Z,78.72
2023-02-01T07:51:17.371Z,71.70
2023-02-01T07:53:45.289Z,77.55
2023-02-01T07:56:19.074Z,81.53
2023-02-01T07:58:55.637Z,77.55
2023-02-01T08:01:27.415Z,67.97
2023-02-01T08:04:00.405Z,74.28
2023-02-01T08:06:28.906Z,72.90
2023-02-01T08:08:56.421Z,78.95
2023-02-01T08:11:25.108Z,73.28
2023-02-01T08:13:52.467Z,89.13
2023-02-01T08:16:20.825Z,88.45
2023-02-01T08:18:47.908Z,85.88
2023-02-01T08:21:24.268Z,100.25
2023-02-01T08:23:51.360Z,108.57
2023-02-01T08:26:22.837Z,96.22
2023-02-01T08:28:52.929Z,89.70
2023-02-01T08:31:22.354Z,96.32
2023-02-01T08:33:52.896Z,92.10
2023-02-01T08:36:21.076Z,94.45
2023-02-01T08:38:48.120Z,96.43
2023-02-01T08:41:18.116Z,94.40
2023-02-01T08:43:46.316Z,89.25
2023-02-01T08:46:13.596Z,95.30
2023-02-01T08:48:42.181Z,95.32
2023-02-01T08:51:12.255Z,95.53
2023-02-01T08:53:42.275Z,91.63
2023-02-01T08:56:13.878Z,104.40
2023-02-01T08:58:41.607Z,87.20
2023-02-01T09:01:11.899Z,92.00
2023-02-01T09:03:38.949Z,97.43
2023-02-01T09:06:11.823Z,96.88
2023-02-01T09:08:40.333Z,95.32
2023-02-01T09:11:12.633Z,80.35
2023-02-01T09:13:39.692Z,84.85
2023-02-01T09:16:07.214Z,79.57
2023-02-01T09:18:34.807Z,82.00
2023-02-01T09:21:06.660Z,83.53
2023-02-01T09:23:34.044Z,92.57
2023-02-01T09:26:05.339Z,100.50
2023-02-01T09:28:33.268Z,91.32
2023-02-01T09:31:01.450Z,93.63
2023-02-01T09:33:29.847Z,87.47
2023-02-01T09:36:03.009Z,90.35
2023-02-01T09:38:31.056Z,90.63
2023-02-01T09:40:59.669Z,91.15
2023-02-01T09:43:50.941Z,81.25
2023-02-01T09:46:33.531Z,75.97
2023-02-01T09:49:25.137Z,85.75
2023-02-01T09:54:25.084Z,88.30
2023-02-01T09:57:05.764Z,80.95
2023-02-01T10:04:38.795Z,85.97
2023-02-01T10:10:33.394Z,77.88
2023-02-01T15:15:22.951Z,146.65
2023-02-01T15:17:58.540Z,168.18
2023-02-01T15:20:28.472Z,130.82
2023-02-01T15:23:06.668Z,132.35
2023-02-01T15:25:39.626Z,139.23
2023-02-01T15:28:11.485Z,130.88
2023-02-01T15:30:40.317Z,129.40
2023-02-01T15:33:16.051Z,128.90
2023-02-01T15:35:45.681Z,125.47
2023-02-01T15:38:24.685Z,138.15
2023-02-01T15:41:00.507Z,138.00
2023-02-01T15:43:29.408Z,136.88
2023-02-01T15:46:08.305Z,142.00
2023-02-01T15:48:55.668Z,136.48
2023-02-01T15:51:25.356Z,131.43
2023-02-01T15:54:20.862Z,130.55
2023-02-01T15:56:53.909Z,126.72
2023-02-01T15:59:26.662Z,139.03
2023-02-01T16:01:53.714Z,119.97
2023-02-01T16:04:26.654Z,135.68
2023-02-01T16:07:05.764Z,140.50
2023-02-01T16:09:42.161Z,128.25
2023-02-01T16:12:44.191Z,128.18
2023-02-01T16:15:11.163Z,139.68
2023-02-01T16:17:38.195Z,145.50
2023-02-01T16:20:05.546Z,140.32
2023-02-01T16:22:32.488Z,141.55
2023-02-01T16:24:59.440Z,153.32
2023-02-01T16:27:26.345Z,132.38
2023-02-01T16:29:56.847Z,135.30
2023-02-01T16:32:23.980Z,136.55
2023-02-01T16:34:50.998Z,156.38
2023-02-01T16:37:22.356Z,135.25
2023-02-01T16:39:49.536Z,142.13
2023-02-01T16:42:17.406Z,144.20
2023-02-01T16:44:44.805Z,156.82
2023-02-01T16:47:22.305Z,148.35
2023-02-01T16:49:50.366Z,161.68
2023-02-01T16:52:20.502Z,158.00
2023-02-01T16:54:48.471Z,155.00
2023-02-01T16:57:17.021Z,150.68
2023-02-01T16:59:45.772Z,155.15
2023-02-01T17:02:20.297Z,160.27
2023-02-01T17:04:49.555Z,167.57
2023-02-01T17:07:20.258Z,162.32
2023-02-01T17:09:48.351Z,168.10
2023-02-01T17:12:27.487Z,164.48
2023-02-01T17:14:55.376Z,161.38
2023-02-01T17:17:36.817Z,153.48
2023-02-01T17:20:07.131Z,153.88
2023-02-01T17:22:34.274Z,147.48
2023-02-01T17:25:01.246Z,137.60
2023-02-01T17:27:30.238Z,147.55
2023-02-01T17:29:57.309Z,133.98
2023-02-01T17:32:25.924Z,135.05
2023-02-01T17:34:54.157Z,139.85
2023-02-01T17:37:28.897Z,141.23
2023-02-01T17:39:57.270Z,140.80
2023-02-01T17:42:26.004Z,141.38
2023-02-01T17:44:56.792Z,128.25
2023-02-01T17:47:24.074Z,126.32
2023-02-01T17:49:56.345Z,133.05
2023-02-01T17:52:25.044Z,137.90
2023-02-01T17:54:54.127Z,134.60
2023-02-01T17:57:21.618Z,129.93
2023-02-01T17:59:48.997Z,135.82
2023-02-01T18:02:23.794Z,126.47
2023-02-01T18:04:51.960Z,129.93
2023-02-01T18:07:19.123Z,118.20
2023-02-01T18:09:46.097Z,127.95
2023-02-01T18:12:20.770Z,124.20
2023-02-01T18:14:47.884Z,116.18
2023-02-01T18:17:15.110Z,122.27
2023-02-01T18:19:42.057Z,112.55
2023-02-01T18:22:19.882Z,106.10
2023-02-01T18:24:46.815Z,104.65
2023-02-01T18:27:13.866Z,100.63
2023-02-01T18:29:40.850Z,94.60
2023-02-01T18:32:10.715Z,90.00
2023-02-01T18:34:37.649Z,95.60
2023-02-01T18:37:04.797Z,87.23
2023-02-01T18:39:31.769Z,75.15
2023-02-01T18:41:59.131Z,88.70
2023-02-01T18:46:53.197Z,79.93
2023-02-01T18:49:20.188Z,69.87
2023-02-01T18:54:14.291Z,72.75
2023-02-01T19:01:38.934Z,69.93
2023-02-01T19:06:46.204Z,80.25
2023-02-01T19:14:07.096Z,74.90
2023-02-01T19:16:36.114Z,73.67
2023-02-01T19:19:03.162Z,72.55
2023-02-01T19:23:57.061Z,77.20
2023-02-01T19:26:24.083Z,78.57
2023-02-01T19:33:45.072Z,74.45
2023-02-01T21:36:53.330Z,48.28
2023-02-01T21:39:20.300Z,37.05
2023-02-01T21:42:05.880Z,37.80
2023-02-01T21:44:32.832Z,36.47
2023-02-01T21:46:59.710Z,45.05
2023-02-01T21:49:29.025Z,41.65
2023-02-01T21:51:56.759Z,32.45
2023-02-01T21:54:23.708Z,35.63
2023-02-01T21:56:50.651Z,42.00
2023-02-01T21:59:18.528Z,38.10
2023-02-01T22:01:46.720Z,29.23
2023-02-01T22:04:13.675Z,33.38
2023-02-01T22:06:45.939Z,41.00
2023-02-01T22:09:21.639Z,44.22
2023-02-01T22:11:49.745Z,34.10
2023-02-01T22:14:17.107Z,29.73
2023-02-01T22:16:44.611Z,39.20
2023-02-01T22:19:14.863Z,41.45
2023-02-01T22:21:43.658Z,37.05
2023-02-01T22:24:13.029Z,28.23
2023-02-01T22:26:40.623Z,28.02
2023-02-01T22:29:09.422Z,22.23
2023-02-01T22:31:36.529Z,28.45
2023-02-01T22:34:04.006Z,24.30
2023-02-01T22:36:31.814Z,23.60
2023-02-01T22:38:58.817Z,24.27
2023-02-01T22:41:25.762Z,32.03
2023-02-01T22:43:52.815Z,26.17
2023-02-01T22:46:42.545Z,25.33
2023-02-01T22:49:09.472Z,32.60
2023-02-01T22:51:36.507Z,22.35
2023-02-01T22:54:03.864Z,20.30
2023-02-01T22:56:37.644Z,24.15
2023-02-01T22:59:07.226Z,16.42
2023-02-01T23:01:35.099Z,21.73
2023-02-01T23:04:05.329Z,23.92
2023-02-01T23:06:33.245Z,23.10
2023-02-01T23:09:03.073Z,21.88
2023-02-01T23:11:30.094Z,22.63
2023-02-01T23:13:57.151Z,22.48
2023-02-01T23:16:24.538Z,23.25
2023-02-01T23:18:51.585Z,21.35
2023-02-01T23:21:21.576Z,20.48
2023-02-01T23:23:53.860Z,20.73
2023-02-01T23:26:21.786Z,19.85
2023-02-01T23:28:50.778Z,20.02
2023-02-01T23:31:17.966Z,14.50
2023-02-01T23:33:45.912Z,20.90
2023-02-01T23:36:16.037Z,23.83
2023-02-01T23:38:47.036Z,18.88
2023-02-01T23:41:16.419Z,28.63
2023-02-01T23:43:59.285Z,24.05
2023-02-01T23:46:29.893Z,17.10
2023-02-01T23:48:57.529Z,17.17
2023-02-01T23:51:25.463Z,14.05
2023-02-01T23:53:53.281Z,16.50
2023-02-01T23:56:23.535Z,16.17
2023-02-01T23:58:51.954Z,24.02
